Sulligent, Alabama
Current Conditions -  °F | °C
As of 2:15 AM on Thursday 27 Nov 2014 (Local Time) from KM40 Reporting Station
Haze Haze  
Wind Chill: 30°   Ceiling: Unl
Heat Index: 34°   Visibility: 5mi
Dew Point: 21°   Wind: 5mph
Humidity: 60%   Direction: 260°W
Pressure: 30.26"   Gusts: NA
Location:  33.9°N, 88.13°W
Report Text: KM40 270815Z AUTO 26004KT 5SM HZ CLR 01/M06 A3026 RMK AO2
Loading
Personal Weather Stations






























Interactive Weather Map New forecast layout! Learn more

10-Day Weather Forecast

Advertisements
Track Severe Weather on mobile